createdAt,value
2022-08-17T00:01:31.457Z,6.45
2022-08-17T00:04:18.949Z,6.53
2022-08-17T00:06:45.885Z,6.03
2022-08-17T00:09:18.873Z,5.72
2022-08-17T00:12:34.866Z,6.27
2022-08-17T00:14:35.117Z,5.50
2022-08-17T00:17:03.629Z,6.00
2022-08-17T00:19:30.299Z,5.90
2022-08-17T00:22:32.534Z,5.80
2022-08-17T00:24:46.789Z,5.72
2022-08-17T00:27:13.293Z,5.35
2022-08-17T00:29:39.841Z,6.03
2022-08-17T00:33:12.286Z,5.82
2022-08-17T00:34:53.149Z,5.43
2022-08-17T00:37:19.667Z,5.90
2022-08-17T00:39:46.209Z,5.30
2022-08-17T00:42:18.205Z,6.28
2022-08-17T00:44:45.274Z,5.60
2022-08-17T00:47:11.830Z,5.78
2022-08-17T00:49:38.342Z,6.28
2022-08-17T00:52:15.290Z,5.63
2022-08-17T00:54:44.675Z,4.97
2022-08-17T00:57:17.669Z,5.35
2022-08-17T00:59:55.925Z,5.03
2022-08-17T01:02:42.028Z,5.43
2022-08-17T01:05:14.402Z,5.55
2022-08-17T01:10:58.881Z,5.97
2022-08-17T01:12:58.110Z,5.80
2022-08-17T01:15:25.225Z,6.70
2022-08-17T01:17:51.833Z,6.22
2022-08-17T01:20:18.430Z,5.70
2022-08-17T01:22:45.141Z,5.18
2022-08-17T01:25:13.349Z,5.28
2022-08-17T01:27:41.497Z,5.15
2022-08-17T01:30:56.614Z,5.18
2022-08-17T01:32:58.027Z,5.70
2022-08-17T01:35:24.734Z,5.40
2022-08-17T01:37:51.284Z,5.47
2022-08-17T01:40:33.329Z,5.72
2022-08-17T01:43:07.262Z,5.90
2022-08-17T01:45:41.101Z,5.65
2022-08-17T01:48:07.609Z,5.20
2022-08-17T01:50:37.822Z,5.13
2022-08-17T01:53:09.634Z,5.53
2022-08-17T01:55:50.078Z,5.38
2022-08-17T01:58:17.830Z,5.90
2022-08-17T02:01:01.284Z,5.22
2022-08-17T02:03:30.209Z,6.25
2022-08-17T02:05:57.504Z,5.85
2022-08-17T02:08:39.528Z,5.75
2022-08-17T02:11:15.664Z,6.00
2022-08-17T02:13:43.901Z,5.93
2022-08-17T02:16:10.474Z,5.40
2022-08-17T02:18:37.098Z,6.40
2022-08-17T02:21:04.151Z,5.72
2022-08-17T02:23:34.366Z,5.97
2022-08-17T02:26:01.779Z,6.60
2022-08-17T02:28:28.974Z,5.85
2022-08-17T02:31:00.790Z,5.60
2022-08-17T02:33:41.852Z,6.18
2022-08-17T02:36:11.539Z,5.65
2022-08-17T02:38:39.728Z,6.28
2022-08-17T02:41:06.511Z,6.20
2022-08-17T02:43:33.161Z,7.35
2022-08-17T02:46:00.118Z,5.93
2022-08-17T02:48:30.565Z,6.65
2022-08-17T02:53:25.611Z,6.13
2022-08-17T02:55:52.793Z,6.10
2022-08-17T02:58:34.624Z,6.40
2022-08-17T03:01:07.016Z,6.93
2022-08-17T03:03:34.806Z,6.38
2022-08-17T03:06:02.334Z,6.05
2022-08-17T03:08:28.925Z,6.28
2022-08-17T03:10:55.871Z,6.95
2022-08-17T03:13:22.438Z,6.47
2022-08-17T03:15:49.949Z,6.82
2022-08-17T03:18:25.345Z,6.10
2022-08-17T03:20:55.356Z,6.88
2022-08-17T03:23:24.033Z,6.40
2022-08-17T03:25:52.825Z,5.88
2022-08-17T03:28:19.741Z,5.95
2022-08-17T03:30:46.319Z,6.47
2022-08-17T03:33:12.809Z,6.60
2022-08-17T03:35:40.989Z,6.35
2022-08-17T03:38:10.062Z,6.28
2022-08-17T03:40:56.329Z,5.65
2022-08-17T03:43:24.621Z,5.45
2022-08-17T03:46:22.528Z,7.38
2022-08-17T03:49:14.556Z,6.40
2022-08-17T03:51:59.463Z,6.68
2022-08-17T03:54:45.112Z,5.78
2022-08-17T03:57:12.568Z,6.38
2022-08-17T03:59:39.471Z,6.28
2022-08-17T04:02:11.305Z,5.55
2022-08-17T04:04:38.625Z,6.50
2022-08-17T04:07:06.140Z,6.05
2022-08-17T04:09:32.769Z,5.93
2022-08-17T04:12:01.181Z,6.63
2022-08-17T04:14:36.710Z,7.10
2022-08-17T04:17:27.583Z,6.65
2022-08-17T04:19:55.471Z,6.65
2022-08-17T04:22:32.136Z,6.97
2022-08-17T04:25:18.618Z,6.43
2022-08-17T04:27:45.186Z,6.50
2022-08-17T04:30:12.663Z,6.68
2022-08-17T04:33:05.050Z,6.18
2022-08-17T04:35:38.982Z,6.22
2022-08-17T04:38:07.257Z,5.70
2022-08-17T04:40:52.315Z,6.50
2022-08-17T04:43:21.597Z,6.43
2022-08-17T04:45:56.363Z,6.78
2022-08-17T04:48:36.159Z,6.68
2022-08-17T04:51:13.445Z,7.00
2022-08-17T04:53:42.602Z,5.90
2022-08-17T04:56:11.627Z,6.03
2022-08-17T05:01:07.099Z,5.82
2022-08-17T05:03:34.121Z,5.60
2022-08-17T05:06:00.606Z,5.32
2022-08-17T05:08:27.146Z,5.22
2022-08-17T05:10:53.692Z,5.35
2022-08-17T05:13:23.269Z,5.38
2022-08-17T05:15:55.033Z,5.60
2022-08-17T05:18:22.196Z,5.60
2022-08-17T05:20:52.525Z,5.68
2022-08-17T05:23:21.155Z,5.20
2022-08-17T05:25:50.384Z,4.88
2022-08-17T05:28:19.998Z,5.43
2022-08-17T05:30:50.942Z,5.05
2022-08-17T05:33:24.205Z,4.50
2022-08-17T05:35:53.912Z,5.03
2022-08-17T05:38:23.049Z,4.72
2022-08-17T05:40:49.809Z,4.75
2022-08-17T05:43:21.076Z,4.63
2022-08-17T05:46:03.225Z,5.13
2022-08-17T05:48:40.451Z,5.18
2022-08-17T05:51:30.963Z,4.40
2022-08-17T05:54:18.830Z,4.78
2022-08-17T05:57:03.421Z,4.53
2022-08-17T05:59:45.109Z,4.68
2022-08-17T06:02:22.797Z,4.68
2022-08-17T06:04:58.397Z,4.13
2022-08-17T06:07:36.928Z,4.55
2022-08-17T06:10:28.198Z,4.60
2022-08-17T06:13:09.050Z,4.65
2022-08-17T06:15:54.157Z,3.97
2022-08-17T06:18:24.185Z,4.18
2022-08-17T06:20:54.915Z,4.80
2022-08-17T06:23:30.298Z,5.30
2022-08-17T06:26:03.696Z,4.40
2022-08-17T06:28:43.705Z,4.38
2022-08-17T06:31:21.297Z,3.83
2022-08-17T06:33:49.029Z,3.97
2022-08-17T06:36:31.997Z,3.65
2022-08-17T06:39:32.449Z,4.47
2022-08-17T06:42:54.813Z,4.00
2022-08-17T06:45:31.224Z,3.90
2022-08-17T06:48:24.398Z,3.97
2022-08-17T06:50:59.958Z,3.90
2022-08-17T06:53:42.690Z,4.05
2022-08-17T06:56:23.505Z,4.43
2022-08-17T06:58:50.112Z,4.00
2022-08-17T07:01:29.476Z,4.22
2022-08-17T07:04:06.422Z,4.43
2022-08-17T07:06:52.048Z,3.90
2022-08-17T07:09:28.105Z,3.33
2022-08-17T07:12:18.548Z,4.00
2022-08-17T07:14:57.076Z,3.93
2022-08-17T07:17:46.934Z,4.15
2022-08-17T07:20:17.686Z,3.83
2022-08-17T07:23:01.817Z,4.00
2022-08-17T07:25:30.363Z,4.28
2022-08-17T07:28:00.697Z,4.22
2022-08-17T07:30:31.453Z,3.63
2022-08-17T07:33:20.261Z,3.70
2022-08-17T07:35:48.297Z,4.05
2022-08-17T07:38:25.813Z,3.75
2022-08-17T07:40:59.141Z,5.80
2022-08-17T07:43:48.366Z,3.80
2022-08-17T07:46:52.952Z,4.28
2022-08-17T07:49:24.750Z,3.80
2022-08-17T07:51:51.173Z,4.47
2022-08-17T07:54:30.146Z,3.92
2022-08-17T07:57:08.517Z,3.60
2022-08-17T07:59:37.725Z,4.10
2022-08-17T08:02:22.687Z,4.00
2022-08-17T08:05:09.026Z,4.03
2022-08-17T08:07:52.196Z,3.80
2022-08-17T08:10:28.068Z,3.60
2022-08-17T08:13:14.505Z,4.18
2022-08-17T08:15:45.211Z,3.65
2022-08-17T08:18:53.538Z,3.83
2022-08-17T08:21:31.397Z,3.60
2022-08-17T08:24:22.995Z,3.60
2022-08-17T08:27:02.754Z,3.10
2022-08-17T08:29:45.065Z,3.85
2022-08-17T08:32:26.746Z,4.00
2022-08-17T08:35:07.563Z,3.92
2022-08-17T08:37:47.874Z,3.80
2022-08-17T08:40:38.667Z,4.47
2022-08-17T08:43:20.265Z,4.05
2022-08-17T08:45:57.715Z,4.30
2022-08-17T08:48:53.186Z,4.60
2022-08-17T08:51:46.393Z,4.77
2022-08-17T08:54:26.921Z,4.63
2022-08-17T09:00:35.678Z,4.82
2022-08-17T09:03:17.530Z,4.38
2022-08-17T09:05:53.410Z,4.60
2022-08-17T09:08:50.367Z,4.88
2022-08-17T09:12:01.901Z,4.93
2022-08-17T09:14:32.285Z,4.57
2022-08-17T09:17:36.789Z,4.55
2022-08-17T09:20:27.653Z,4.47
2022-08-17T09:23:02.665Z,3.78
2022-08-17T09:25:33.618Z,4.43
2022-08-17T09:28:05.173Z,3.60
2022-08-17T09:30:40.858Z,4.22
2022-08-17T09:33:09.430Z,4.05
2022-08-17T09:35:38.008Z,3.80
2022-08-17T09:38:19.401Z,3.60
2022-08-17T09:41:10.810Z,4.00
2022-08-17T09:46:25.491Z,3.85
2022-08-17T09:49:09.652Z,5.15
2022-08-17T09:51:41.225Z,4.93
2022-08-17T09:54:38.204Z,4.70
2022-08-17T09:57:30.779Z,5.05
2022-08-17T10:00:19.893Z,4.30
2022-08-17T10:03:11.760Z,4.55
2022-08-17T10:05:46.264Z,5.53
2022-08-17T10:08:36.546Z,5.03
2022-08-17T10:11:48.316Z,5.22
2022-08-17T10:14:53.355Z,5.45
2022-08-17T10:17:29.189Z,5.50
2022-08-17T10:20:17.281Z,5.18
2022-08-17T10:23:14.578Z,4.85
2022-08-17T10:26:09.037Z,4.18
2022-08-17T10:28:42.841Z,5.18
2022-08-17T10:34:01.757Z,5.78
2022-08-17T10:36:40.981Z,5.47
2022-08-17T10:39:52.232Z,5.97
2022-08-17T10:42:33.428Z,5.63
2022-08-17T10:45:20.008Z,5.93
2022-08-17T10:48:30.813Z,5.45
2022-08-17T10:51:00.545Z,5.75
2022-08-17T10:53:32.783Z,6.20
2022-08-17T10:56:21.620Z,5.70
2022-08-17T10:58:50.169Z,5.18
2022-08-17T11:01:17.886Z,5.22
2022-08-17T11:03:54.950Z,5.55
2022-08-17T11:06:35.073Z,5.60
2022-08-17T11:09:30.842Z,6.32
2022-08-17T11:12:15.399Z,6.22
2022-08-17T11:14:53.222Z,6.30
2022-08-17T11:17:35.202Z,6.93
2022-08-17T11:20:35.692Z,6.82
2022-08-17T11:23:29.982Z,7.47
2022-08-17T11:25:58.929Z,6.75
2022-08-17T11:28:34.236Z,7.00
2022-08-17T11:31:38.872Z,8.23
2022-08-17T11:34:21.341Z,6.88
2022-08-17T11:37:25.561Z,7.45
2022-08-17T11:40:10.323Z,6.97
2022-08-17T11:43:14.421Z,6.47
2022-08-17T11:46:13.121Z,7.25
2022-08-17T11:49:05.039Z,6.35
2022-08-17T11:52:11.102Z,6.88
2022-08-17T11:54:47.327Z,5.97
2022-08-17T11:57:42.386Z,5.53
2022-08-17T12:00:49.146Z,5.30
2022-08-17T12:03:26.518Z,5.28
2022-08-17T12:06:20.157Z,5.43
2022-08-17T12:09:16.069Z,6.00
2022-08-17T12:11:55.542Z,5.28
2022-08-17T12:15:08.370Z,5.40
2022-08-17T12:17:40.503Z,6.00
2022-08-17T12:20:21.351Z,5.63
2022-08-17T12:23:00.906Z,5.88
2022-08-17T12:25:37.482Z,5.63
2022-08-17T12:28:19.907Z,6.18
2022-08-17T12:30:52.120Z,5.95
2022-08-17T12:33:25.468Z,5.70
2022-08-17T12:36:05.059Z,5.18
2022-08-17T12:38:34.633Z,5.57
2022-08-17T12:41:22.680Z,5.72
2022-08-17T12:44:18.086Z,5.32
2022-08-17T12:46:48.959Z,4.80
2022-08-17T12:49:36.257Z,4.93
2022-08-17T12:52:32.834Z,5.00
2022-08-17T12:55:20.998Z,4.82
2022-08-17T12:57:51.469Z,5.10
2022-08-17T13:00:24.977Z,4.72
2022-08-17T13:02:57.862Z,5.05
2022-08-17T13:05:40.053Z,5.70
2022-08-17T13:08:20.144Z,5.22
2022-08-17T13:11:24.468Z,4.25
2022-08-17T13:13:55.011Z,4.00
2022-08-17T13:16:25.306Z,4.32
2022-08-17T13:19:07.229Z,4.68
2022-08-17T13:21:35.356Z,4.22
2022-08-17T13:24:11.211Z,3.53
2022-08-17T13:26:41.534Z,3.20
2022-08-17T13:29:23.790Z,3.58
2022-08-17T13:31:56.409Z,3.40
2022-08-17T13:34:26.857Z,3.53
2022-08-17T13:37:25.195Z,3.50
2022-08-17T13:40:07.558Z,3.53
2022-08-17T13:42:50.234Z,3.15
2022-08-17T13:45:35.131Z,3.35
2022-08-17T13:48:19.634Z,3.00
2022-08-17T13:50:55.213Z,2.95
2022-08-17T13:53:40.374Z,3.38
2022-08-17T13:56:33.356Z,2.85
2022-08-17T13:59:16.420Z,3.33
2022-08-17T14:01:53.560Z,3.20
2022-08-17T14:04:28.645Z,3.33
2022-08-17T14:06:59.785Z,3.08
2022-08-17T14:09:36.852Z,3.28
2022-08-17T14:12:08.513Z,2.80
2022-08-17T14:14:36.291Z,3.13
2022-08-17T14:17:03.205Z,3.25
2022-08-17T14:19:29.782Z,3.20
2022-08-17T14:21:58.992Z,3.45
2022-08-17T14:24:31.977Z,2.70
2022-08-17T14:27:00.169Z,2.88
2022-08-17T14:29:29.188Z,3.17
2022-08-17T14:31:56.839Z,2.80
2022-08-17T14:34:24.337Z,3.00
2022-08-17T14:36:52.224Z,3.03
2022-08-17T14:39:19.331Z,3.00
2022-08-17T14:41:45.894Z,2.95
2022-08-17T14:44:13.231Z,2.80
2022-08-17T14:46:41.956Z,2.85
2022-08-17T14:49:11.852Z,3.00
2022-08-17T14:51:44.031Z,3.08
2022-08-17T14:54:32.599Z,3.03
2022-08-17T14:57:15.585Z,2.80
2022-08-17T14:59:46.891Z,2.90
2022-08-17T15:02:13.452Z,2.70
2022-08-17T15:04:45.397Z,2.90
2022-08-17T15:07:12.326Z,2.90
2022-08-17T15:09:38.989Z,3.00
2022-08-17T15:12:06.629Z,2.95
2022-08-17T15:14:35.411Z,2.90
2022-08-17T15:17:05.574Z,2.88
2022-08-17T15:19:32.066Z,3.08
2022-08-17T15:21:58.634Z,3.00
2022-08-17T15:24:25.101Z,3.03
2022-08-17T15:26:51.581Z,3.17
2022-08-17T15:29:18.309Z,3.30
2022-08-17T15:31:44.787Z,3.13
2022-08-17T15:34:11.863Z,2.95
2022-08-17T15:36:38.895Z,3.20
2022-08-17T15:39:14.409Z,3.10
2022-08-17T15:41:47.186Z,3.42
2022-08-17T15:44:24.621Z,3.30
2022-08-17T15:46:59.202Z,3.08
2022-08-17T15:49:25.725Z,3.30
2022-08-17T15:51:52.168Z,3.40
2022-08-17T15:54:22.736Z,3.35
2022-08-17T15:56:50.295Z,3.50
2022-08-17T15:59:16.835Z,3.60
2022-08-17T16:03:13.028Z,3.70
2022-08-17T16:04:31.636Z,4.47
2022-08-17T16:06:59.824Z,4.38
2022-08-17T16:09:26.886Z,4.50
2022-08-17T16:11:55.497Z,4.57
2022-08-17T16:14:24.232Z,5.32
2022-08-17T16:16:51.117Z,3.72
2022-08-17T16:19:17.597Z,4.60
2022-08-17T16:21:44.068Z,4.25
2022-08-17T16:24:13.447Z,3.75
2022-08-17T16:26:41.913Z,4.13
2022-08-17T16:29:08.886Z,4.15
2022-08-17T16:31:37.558Z,4.60
2022-08-17T16:34:17.550Z,4.40
2022-08-17T16:36:55.028Z,4.80
2022-08-17T16:39:28.899Z,4.43
2022-08-17T16:41:56.871Z,4.85
2022-08-17T16:44:23.465Z,5.40
2022-08-17T16:46:50.488Z,3.92
2022-08-17T16:49:35.357Z,4.43
2022-08-17T16:52:07.440Z,4.15
2022-08-17T16:54:35.208Z,4.60
2022-08-17T16:57:03.926Z,4.20
2022-08-17T16:59:40.857Z,4.30
2022-08-17T17:02:10.848Z,4.55
2022-08-17T17:05:01.582Z,4.50
2022-08-17T17:07:50.092Z,4.82
2022-08-17T17:10:22.486Z,4.63
2022-08-17T17:13:01.350Z,4.72
2022-08-17T17:15:39.397Z,4.88
2022-08-17T17:18:11.426Z,4.88
2022-08-17T17:20:58.529Z,4.43
2022-08-17T17:23:37.201Z,4.43
2022-08-17T17:26:28.912Z,4.22
2022-08-17T17:29:18.217Z,4.20
2022-08-17T17:32:05.633Z,4.40
2022-08-17T17:34:34.759Z,4.38
2022-08-17T17:37:11.299Z,4.28
2022-08-17T17:39:46.084Z,4.70
2022-08-17T17:42:20.112Z,4.18
2022-08-17T17:44:57.290Z,4.28
2022-08-17T17:47:23.872Z,5.50
2022-08-17T17:49:50.604Z,5.10
2022-08-17T17:52:32.285Z,4.55
2022-08-17T17:55:05.950Z,4.90
2022-08-17T17:57:39.169Z,4.57
2022-08-17T18:00:16.934Z,4.80
2022-08-17T18:03:18.487Z,4.80
2022-08-17T18:06:18.739Z,4.22
2022-08-17T18:09:19.590Z,4.47
2022-08-17T18:11:51.918Z,4.65
2022-08-17T18:14:44.367Z,4.88
2022-08-17T18:17:10.928Z,4.63
2022-08-17T18:19:39.813Z,5.35
2022-08-17T18:22:14.590Z,6.13
2022-08-17T18:24:48.931Z,5.13
2022-08-17T18:27:30.280Z,5.22
2022-08-17T18:29:59.045Z,5.30
2022-08-17T18:32:36.129Z,4.97
2022-08-17T18:35:08.977Z,4.45
2022-08-17T18:37:37.322Z,5.15
2022-08-17T18:40:23.281Z,5.07
2022-08-17T18:43:13.133Z,4.75
2022-08-17T18:45:49.797Z,4.95
2022-08-17T18:48:33.167Z,5.18
2022-08-17T18:51:40.659Z,6.30
2022-08-17T18:54:23.413Z,5.80
2022-08-17T18:56:57.226Z,5.85
2022-08-17T18:59:29.589Z,5.10
2022-08-17T19:02:13.868Z,4.82
2022-08-17T19:05:26.593Z,4.88
2022-08-17T19:07:53.390Z,4.72
2022-08-17T19:10:47.019Z,5.15
2022-08-17T19:13:24.399Z,4.70
2022-08-17T19:16:15.118Z,4.53
2022-08-17T19:18:48.893Z,5.20
2022-08-17T19:21:22.957Z,4.50
2022-08-17T19:24:04.889Z,5.20
2022-08-17T19:26:53.267Z,6.55
2022-08-17T19:29:38.380Z,5.60
2022-08-17T19:32:08.774Z,5.10
2022-08-17T19:34:37.559Z,4.93
2022-08-17T19:37:34.953Z,4.97
2022-08-17T19:43:28.825Z,5.43
2022-08-17T19:46:09.698Z,4.97
2022-08-17T19:48:45.507Z,5.40
2022-08-17T19:51:24.114Z,5.32
2022-08-17T19:54:06.440Z,5.43
2022-08-17T19:56:50.606Z,5.15
2022-08-17T19:59:46.204Z,5.25
2022-08-17T20:02:20.583Z,5.63
2022-08-17T20:04:50.545Z,6.00
2022-08-17T20:07:28.857Z,6.03
2022-08-17T20:10:05.108Z,5.35
2022-08-17T20:12:36.304Z,6.18
2022-08-17T20:15:18.021Z,5.63
2022-08-17T20:17:46.995Z,5.45
2022-08-17T20:20:41.516Z,5.43
2022-08-17T20:23:31.086Z,5.00
2022-08-17T20:26:09.471Z,5.93
2022-08-17T20:28:39.087Z,5.25
2022-08-17T20:31:45.381Z,4.72
2022-08-17T20:34:30.992Z,6.60
2022-08-17T20:37:10.261Z,5.88
2022-08-17T20:39:46.163Z,5.40
2022-08-17T20:42:35.803Z,4.80
2022-08-17T20:45:23.650Z,5.28
2022-08-17T20:48:22.218Z,5.00
2022-08-17T20:50:52.328Z,5.32
2022-08-17T20:53:47.163Z,5.40
2022-08-17T20:56:44.892Z,5.57
2022-08-17T20:59:20.341Z,5.93
2022-08-17T21:02:06.630Z,5.15
2022-08-17T21:04:54.252Z,5.22
2022-08-17T21:07:23.853Z,5.28
2022-08-17T21:09:51.195Z,5.20
2022-08-17T21:12:48.533Z,5.05
2022-08-17T21:15:28.524Z,5.38
2022-08-17T21:18:11.386Z,5.43
2022-08-17T21:20:48.319Z,5.13
2022-08-17T21:23:43.714Z,5.05
2022-08-17T21:26:10.162Z,5.07
2022-08-17T21:28:59.795Z,5.25
2022-08-17T21:31:34.161Z,5.05
2022-08-17T21:34:16.308Z,5.15
2022-08-17T21:36:44.769Z,5.25
2022-08-17T21:39:14.097Z,5.50
2022-08-17T21:41:53.585Z,5.68
2022-08-17T21:44:31.407Z,5.53
2022-08-17T21:47:14.053Z,5.63
2022-08-17T21:49:40.542Z,5.20
2022-08-17T21:52:07.525Z,5.18
2022-08-17T21:54:39.143Z,5.57
2022-08-17T21:57:16.547Z,5.70
2022-08-17T21:59:44.154Z,5.97
2022-08-17T22:02:25.820Z,5.43
2022-08-17T22:05:14.525Z,5.70
2022-08-17T22:07:47.793Z,5.43
2022-08-17T22:10:41.863Z,5.55
2022-08-17T22:13:20.226Z,5.18
2022-08-17T22:15:48.330Z,5.13
2022-08-17T22:18:21.653Z,4.97
2022-08-17T22:20:56.160Z,5.30
2022-08-17T22:23:49.363Z,4.88
2022-08-17T22:26:18.293Z,4.97
2022-08-17T22:28:48.841Z,5.45
2022-08-17T22:31:22.384Z,5.90
2022-08-17T22:34:02.553Z,5.72
2022-08-17T22:36:31.209Z,5.28
2022-08-17T22:39:01.202Z,5.32
2022-08-17T22:41:55.308Z,4.40
2022-08-17T22:44:31.776Z,4.75
2022-08-17T22:47:03.535Z,4.60
2022-08-17T22:49:57.568Z,4.30
2022-08-17T22:52:59.697Z,4.55
2022-08-17T22:55:48.397Z,3.95
2022-08-17T22:58:36.882Z,4.68
2022-08-17T23:01:31.361Z,4.65
2022-08-17T23:04:11.777Z,4.53
2022-08-17T23:06:42.494Z,4.72
2022-08-17T23:09:09.637Z,4.50
2022-08-17T23:11:49.700Z,4.43
2022-08-17T23:18:23.384Z,5.18
2022-08-17T23:20:49.888Z,4.43
2022-08-17T23:23:23.445Z,4.43
2022-08-17T23:25:50.612Z,4.38
2022-08-17T23:28:17.115Z,4.45
2022-08-17T23:30:44.684Z,4.35
2022-08-17T23:33:21.154Z,4.72
2022-08-17T23:35:47.757Z,4.22
2022-08-17T23:38:14.370Z,4.68
2022-08-17T23:40:41.107Z,4.68
2022-08-17T23:43:23.685Z,4.68
2022-08-17T23:45:53.137Z,4.65
2022-08-17T23:48:35.210Z,4.55
2022-08-17T23:51:09.011Z,4.80
2022-08-17T23:53:37.556Z,4.38
2022-08-17T23:56:10.034Z,4.70
2022-08-17T23:58:38.424Z,4.72
